sensor_id;sensor_type;location;lat;lon;timestamp;P1;durP1;ratioP1;P2;durP2;ratioP2
37805;SDS011;25082;50.870;0.022;2022-12-18T00:01:01;10.38;;;8.27;;
37805;SDS011;25082;50.870;0.022;2022-12-18T00:03:42;10.85;;;8.50;;
37805;SDS011;25082;50.870;0.022;2022-12-18T00:06:08;10.63;;;7.70;;
37805;SDS011;25082;50.870;0.022;2022-12-18T00:08:34;9.80;;;8.30;;
37805;SDS011;25082;50.870;0.022;2022-12-18T00:11:07;10.65;;;7.82;;
37805;SDS011;25082;50.870;0.022;2022-12-18T00:13:34;10.00;;;7.65;;
37805;SDS011;25082;50.870;0.022;2022-12-18T00:16:03;11.63;;;8.82;;
37805;SDS011;25082;50.870;0.022;2022-12-18T00:18:31;11.43;;;8.50;;
37805;SDS011;25082;50.870;0.022;2022-12-18T00:21:00;10.50;;;7.78;;
37805;SDS011;25082;50.870;0.022;2022-12-18T00:23:28;9.45;;;7.63;;
37805;SDS011;25082;50.870;0.022;2022-12-18T00:25:54;13.20;;;8.85;;
37805;SDS011;25082;50.870;0.022;2022-12-18T00:28:23;10.57;;;7.70;;
37805;SDS011;25082;50.870;0.022;2022-12-18T00:30:49;10.82;;;7.55;;
37805;SDS011;25082;50.870;0.022;2022-12-18T00:33:16;9.35;;;7.40;;
37805;SDS011;25082;50.870;0.022;2022-12-18T00:35:42;11.02;;;8.02;;
37805;SDS011;25082;50.870;0.022;2022-12-18T00:38:08;8.27;;;7.32;;
37805;SDS011;25082;50.870;0.022;2022-12-18T00:40:34;9.48;;;7.10;;
37805;SDS011;25082;50.870;0.022;2022-12-18T00:42:59;9.35;;;7.55;;
37805;SDS011;25082;50.870;0.022;2022-12-18T00:45:26;9.40;;;7.15;;
37805;SDS011;25082;50.870;0.022;2022-12-18T00:47:55;9.63;;;7.50;;
37805;SDS011;25082;50.870;0.022;2022-12-18T00:50:22;10.27;;;7.68;;
37805;SDS011;25082;50.870;0.022;2022-12-18T00:52:49;9.55;;;7.35;;
37805;SDS011;25082;50.870;0.022;2022-12-18T00:55:15;10.07;;;7.00;;
37805;SDS011;25082;50.870;0.022;2022-12-18T00:57:41;9.25;;;6.85;;
37805;SDS011;25082;50.870;0.022;2022-12-18T01:00:08;9.52;;;7.32;;
37805;SDS011;25082;50.870;0.022;2022-12-18T01:02:36;8.38;;;6.72;;
37805;SDS011;25082;50.870;0.022;2022-12-18T01:05:02;8.43;;;6.60;;
37805;SDS011;25082;50.870;0.022;2022-12-18T01:07:29;8.52;;;6.53;;
37805;SDS011;25082;50.870;0.022;2022-12-18T01:09:55;9.02;;;6.32;;
37805;SDS011;25082;50.870;0.022;2022-12-18T01:12:20;8.45;;;6.10;;
37805;SDS011;25082;50.870;0.022;2022-12-18T01:14:46;9.20;;;6.68;;
37805;SDS011;25082;50.870;0.022;2022-12-18T01:17:12;9.38;;;6.78;;
37805;SDS011;25082;50.870;0.022;2022-12-18T01:19:38;8.70;;;6.40;;
37805;SDS011;25082;50.870;0.022;2022-12-18T01:22:03;9.30;;;6.93;;
37805;SDS011;25082;50.870;0.022;2022-12-18T01:24:29;8.23;;;6.07;;
37805;SDS011;25082;50.870;0.022;2022-12-18T01:26:55;8.52;;;6.03;;
37805;SDS011;25082;50.870;0.022;2022-12-18T01:29:22;9.45;;;6.82;;
37805;SDS011;25082;50.870;0.022;2022-12-18T01:31:48;9.45;;;6.63;;
37805;SDS011;25082;50.870;0.022;2022-12-18T01:34:14;7.35;;;5.35;;
37805;SDS011;25082;50.870;0.022;2022-12-18T01:36:40;8.38;;;6.07;;
37805;SDS011;25082;50.870;0.022;2022-12-18T01:39:10;9.82;;;6.45;;
37805;SDS011;25082;50.870;0.022;2022-12-18T01:41:37;7.22;;;5.80;;
37805;SDS011;25082;50.870;0.022;2022-12-18T01:47:29;8.48;;;5.72;;
37805;SDS011;25082;50.870;0.022;2022-12-18T01:49:59;8.50;;;6.10;;
37805;SDS011;25082;50.870;0.022;2022-12-18T01:52:31;9.38;;;6.63;;
37805;SDS011;25082;50.870;0.022;2022-12-18T01:54:58;7.65;;;5.88;;
37805;SDS011;25082;50.870;0.022;2022-12-18T01:57:25;8.18;;;5.68;;
37805;SDS011;25082;50.870;0.022;2022-12-18T01:59:52;8.95;;;6.30;;
37805;SDS011;25082;50.870;0.022;2022-12-18T02:02:22;7.75;;;5.72;;
37805;SDS011;25082;50.870;0.022;2022-12-18T02:04:47;8.00;;;5.88;;
37805;SDS011;25082;50.870;0.022;2022-12-18T02:07:20;7.05;;;5.50;;
37805;SDS011;25082;50.870;0.022;2022-12-18T02:10:12;7.93;;;5.72;;
37805;SDS011;25082;50.870;0.022;2022-12-18T02:18:11;7.07;;;4.90;;
37805;SDS011;25082;50.870;0.022;2022-12-18T02:20:47;7.40;;;5.18;;
37805;SDS011;25082;50.870;0.022;2022-12-18T02:28:56;6.35;;;4.32;;
37805;SDS011;25082;50.870;0.022;2022-12-18T02:31:29;6.13;;;5.53;;
37805;SDS011;25082;50.870;0.022;2022-12-18T02:34:04;7.65;;;5.45;;
37805;SDS011;25082;50.870;0.022;2022-12-18T02:36:33;6.13;;;4.88;;
37805;SDS011;25082;50.870;0.022;2022-12-18T02:39:03;7.85;;;5.00;;
37805;SDS011;25082;50.870;0.022;2022-12-18T02:41:30;7.53;;;5.47;;
37805;SDS011;25082;50.870;0.022;2022-12-18T02:43:57;7.13;;;4.68;;
37805;SDS011;25082;50.870;0.022;2022-12-18T02:52:01;6.93;;;4.95;;
37805;SDS011;25082;50.870;0.022;2022-12-18T02:54:56;5.88;;;4.60;;
37805;SDS011;25082;50.870;0.022;2022-12-18T03:00:23;5.65;;;4.07;;
37805;SDS011;25082;50.870;0.022;2022-12-18T03:02:59;6.85;;;4.28;;
37805;SDS011;25082;50.870;0.022;2022-12-18T03:08:14;5.85;;;4.07;;
37805;SDS011;25082;50.870;0.022;2022-12-18T03:10:58;7.30;;;4.82;;
37805;SDS011;25082;50.870;0.022;2022-12-18T03:13:39;6.05;;;4.45;;
37805;SDS011;25082;50.870;0.022;2022-12-18T03:16:06;6.90;;;4.13;;
37805;SDS011;25082;50.870;0.022;2022-12-18T03:18:41;6.32;;;3.97;;
37805;SDS011;25082;50.870;0.022;2022-12-18T03:21:11;6.85;;;4.63;;
37805;SDS011;25082;50.870;0.022;2022-12-18T03:23:42;5.78;;;3.72;;
37805;SDS011;25082;50.870;0.022;2022-12-18T03:26:12;6.18;;;4.13;;
37805;SDS011;25082;50.870;0.022;2022-12-18T03:28:44;5.47;;;3.92;;
37805;SDS011;25082;50.870;0.022;2022-12-18T03:31:14;6.03;;;3.88;;
37805;SDS011;25082;50.870;0.022;2022-12-18T03:33:42;4.65;;;3.22;;
37805;SDS011;25082;50.870;0.022;2022-12-18T03:36:17;6.78;;;4.00;;
37805;SDS011;25082;50.870;0.022;2022-12-18T03:38:43;5.68;;;3.78;;
37805;SDS011;25082;50.870;0.022;2022-12-18T03:43:54;5.35;;;4.07;;
37805;SDS011;25082;50.870;0.022;2022-12-18T03:52:25;6.75;;;4.13;;
37805;SDS011;25082;50.870;0.022;2022-12-18T03:54:55;6.57;;;3.95;;
37805;SDS011;25082;50.870;0.022;2022-12-18T03:57:24;6.38;;;4.03;;
37805;SDS011;25082;50.870;0.022;2022-12-18T03:59:57;5.07;;;3.70;;
37805;SDS011;25082;50.870;0.022;2022-12-18T04:02:29;5.25;;;3.75;;
37805;SDS011;25082;50.870;0.022;2022-12-18T04:04:58;5.90;;;3.70;;
37805;SDS011;25082;50.870;0.022;2022-12-18T04:07:27;4.78;;;3.60;;
37805;SDS011;25082;50.870;0.022;2022-12-18T04:09:53;5.70;;;4.10;;
37805;SDS011;25082;50.870;0.022;2022-12-18T04:12:24;6.18;;;3.95;;
37805;SDS011;25082;50.870;0.022;2022-12-18T04:14:51;7.22;;;4.40;;
37805;SDS011;25082;50.870;0.022;2022-12-18T04:17:17;5.63;;;4.10;;
37805;SDS011;25082;50.870;0.022;2022-12-18T04:19:43;5.22;;;3.40;;
37805;SDS011;25082;50.870;0.022;2022-12-18T04:22:09;5.55;;;3.60;;
37805;SDS011;25082;50.870;0.022;2022-12-18T04:24:36;6.43;;;4.32;;
37805;SDS011;25082;50.870;0.022;2022-12-18T04:27:01;6.88;;;4.38;;
37805;SDS011;25082;50.870;0.022;2022-12-18T04:29:27;5.57;;;3.35;;
37805;SDS011;25082;50.870;0.022;2022-12-18T04:31:53;6.30;;;4.10;;
37805;SDS011;25082;50.870;0.022;2022-12-18T04:34:19;6.47;;;4.00;;
37805;SDS011;25082;50.870;0.022;2022-12-18T04:36:45;4.28;;;3.60;;
37805;SDS011;25082;50.870;0.022;2022-12-18T04:39:11;5.85;;;3.88;;
37805;SDS011;25082;50.870;0.022;2022-12-18T04:41:37;7.25;;;4.25;;
37805;SDS011;25082;50.870;0.022;2022-12-18T04:44:03;8.77;;;4.15;;
37805;SDS011;25082;50.870;0.022;2022-12-18T04:46:29;5.45;;;3.50;;
37805;SDS011;25082;50.870;0.022;2022-12-18T04:48:55;5.20;;;3.45;;
37805;SDS011;25082;50.870;0.022;2022-12-18T04:51:21;5.57;;;3.67;;
37805;SDS011;25082;50.870;0.022;2022-12-18T04:53:46;4.97;;;3.80;;
37805;SDS011;25082;50.870;0.022;2022-12-18T04:56:13;7.32;;;4.45;;
37805;SDS011;25082;50.870;0.022;2022-12-18T04:58:41;5.82;;;3.85;;
37805;SDS011;25082;50.870;0.022;2022-12-18T05:01:08;6.03;;;3.70;;
37805;SDS011;25082;50.870;0.022;2022-12-18T05:03:35;6.50;;;3.85;;
37805;SDS011;25082;50.870;0.022;2022-12-18T05:06:02;5.13;;;3.75;;
37805;SDS011;25082;50.870;0.022;2022-12-18T05:08:29;6.90;;;4.40;;
37805;SDS011;25082;50.870;0.022;2022-12-18T05:11:08;5.82;;;3.67;;
37805;SDS011;25082;50.870;0.022;2022-12-18T05:13:36;5.03;;;3.35;;
37805;SDS011;25082;50.870;0.022;2022-12-18T05:16:03;6.53;;;4.15;;
37805;SDS011;25082;50.870;0.022;2022-12-18T05:18:29;5.95;;;3.78;;
37805;SDS011;25082;50.870;0.022;2022-12-18T05:20:55;6.00;;;4.15;;
37805;SDS011;25082;50.870;0.022;2022-12-18T05:23:22;5.68;;;3.83;;
37805;SDS011;25082;50.870;0.022;2022-12-18T05:25:52;5.65;;;3.75;;
37805;SDS011;25082;50.870;0.022;2022-12-18T05:28:19;5.25;;;3.72;;
37805;SDS011;25082;50.870;0.022;2022-12-18T05:30:52;5.45;;;3.70;;
37805;SDS011;25082;50.870;0.022;2022-12-18T05:33:23;5.78;;;3.10;;
37805;SDS011;25082;50.870;0.022;2022-12-18T05:35:51;5.43;;;3.72;;
37805;SDS011;25082;50.870;0.022;2022-12-18T05:38:18;5.03;;;3.55;;
37805;SDS011;25082;50.870;0.022;2022-12-18T05:40:44;4.50;;;3.28;;
37805;SDS011;25082;50.870;0.022;2022-12-18T05:43:11;6.95;;;3.97;;
37805;SDS011;25082;50.870;0.022;2022-12-18T05:45:37;5.03;;;3.33;;
37805;SDS011;25082;50.870;0.022;2022-12-18T05:48:03;5.80;;;3.03;;
37805;SDS011;25082;50.870;0.022;2022-12-18T05:50:30;6.53;;;3.90;;
37805;SDS011;25082;50.870;0.022;2022-12-18T05:52:55;5.25;;;3.30;;
37805;SDS011;25082;50.870;0.022;2022-12-18T05:55:21;5.07;;;3.65;;
37805;SDS011;25082;50.870;0.022;2022-12-18T05:57:47;4.82;;;3.33;;
37805;SDS011;25082;50.870;0.022;2022-12-18T06:00:13;5.85;;;3.40;;
37805;SDS011;25082;50.870;0.022;2022-12-18T06:02:39;6.28;;;3.50;;
37805;SDS011;25082;50.870;0.022;2022-12-18T06:05:05;5.35;;;3.50;;
37805;SDS011;25082;50.870;0.022;2022-12-18T06:07:31;6.22;;;3.95;;
37805;SDS011;25082;50.870;0.022;2022-12-18T06:09:57;7.63;;;3.65;;
37805;SDS011;25082;50.870;0.022;2022-12-18T06:12:22;4.70;;;3.30;;
37805;SDS011;25082;50.870;0.022;2022-12-18T06:14:48;4.03;;;3.33;;
37805;SDS011;25082;50.870;0.022;2022-12-18T06:17:14;4.70;;;3.13;;
37805;SDS011;25082;50.870;0.022;2022-12-18T06:19:39;4.40;;;3.30;;
37805;SDS011;25082;50.870;0.022;2022-12-18T06:22:05;6.43;;;3.95;;
37805;SDS011;25082;50.870;0.022;2022-12-18T06:24:31;4.45;;;3.40;;
37805;SDS011;25082;50.870;0.022;2022-12-18T06:26:58;4.35;;;3.35;;
37805;SDS011;25082;50.870;0.022;2022-12-18T06:29:23;5.85;;;3.72;;
37805;SDS011;25082;50.870;0.022;2022-12-18T06:31:49;5.63;;;3.20;;
37805;SDS011;25082;50.870;0.022;2022-12-18T06:34:15;5.28;;;3.40;;
37805;SDS011;25082;50.870;0.022;2022-12-18T06:36:40;5.97;;;3.35;;
37805;SDS011;25082;50.870;0.022;2022-12-18T06:39:06;4.78;;;3.30;;
37805;SDS011;25082;50.870;0.022;2022-12-18T06:41:32;7.00;;;3.72;;
37805;SDS011;25082;50.870;0.022;2022-12-18T06:43:57;4.93;;;3.17;;
37805;SDS011;25082;50.870;0.022;2022-12-18T06:46:23;4.13;;;3.10;;
37805;SDS011;25082;50.870;0.022;2022-12-18T06:48:49;5.18;;;3.28;;
37805;SDS011;25082;50.870;0.022;2022-12-18T06:51:16;5.15;;;3.38;;
37805;SDS011;25082;50.870;0.022;2022-12-18T06:53:43;6.47;;;3.55;;
37805;SDS011;25082;50.870;0.022;2022-12-18T06:56:09;6.38;;;3.75;;
37805;SDS011;25082;50.870;0.022;2022-12-18T06:58:35;5.93;;;3.42;;
37805;SDS011;25082;50.870;0.022;2022-12-18T07:01:01;7.05;;;3.95;;
37805;SDS011;25082;50.870;0.022;2022-12-18T07:03:28;5.40;;;3.75;;
37805;SDS011;25082;50.870;0.022;2022-12-18T07:05:54;6.03;;;3.47;;
37805;SDS011;25082;50.870;0.022;2022-12-18T07:08:19;5.10;;;3.53;;
37805;SDS011;25082;50.870;0.022;2022-12-18T07:10:46;7.05;;;3.88;;
37805;SDS011;25082;50.870;0.022;2022-12-18T07:13:14;5.25;;;3.60;;
37805;SDS011;25082;50.870;0.022;2022-12-18T07:15:40;4.90;;;3.55;;
37805;SDS011;25082;50.870;0.022;2022-12-18T07:18:06;6.55;;;3.67;;
37805;SDS011;25082;50.870;0.022;2022-12-18T07:20:31;6.82;;;3.97;;
37805;SDS011;25082;50.870;0.022;2022-12-18T07:22:57;6.25;;;3.97;;
37805;SDS011;25082;50.870;0.022;2022-12-18T07:25:23;5.10;;;3.55;;
37805;SDS011;25082;50.870;0.022;2022-12-18T07:27:48;5.60;;;3.53;;
37805;SDS011;25082;50.870;0.022;2022-12-18T07:30:14;6.60;;;4.00;;
37805;SDS011;25082;50.870;0.022;2022-12-18T07:32:40;4.90;;;3.80;;
37805;SDS011;25082;50.870;0.022;2022-12-18T07:35:06;6.63;;;4.07;;
37805;SDS011;25082;50.870;0.022;2022-12-18T07:37:32;4.90;;;3.63;;
37805;SDS011;25082;50.870;0.022;2022-12-18T07:39:57;6.22;;;3.53;;
37805;SDS011;25082;50.870;0.022;2022-12-18T07:42:23;6.20;;;4.10;;
37805;SDS011;25082;50.870;0.022;2022-12-18T07:44:58;6.70;;;4.07;;
37805;SDS011;25082;50.870;0.022;2022-12-18T07:47:25;8.32;;;4.43;;
37805;SDS011;25082;50.870;0.022;2022-12-18T07:49:51;7.28;;;4.20;;
37805;SDS011;25082;50.870;0.022;2022-12-18T07:52:17;6.80;;;4.55;;
37805;SDS011;25082;50.870;0.022;2022-12-18T07:54:43;7.13;;;4.70;;
37805;SDS011;25082;50.870;0.022;2022-12-18T07:57:09;5.47;;;3.67;;
37805;SDS011;25082;50.870;0.022;2022-12-18T07:59:35;7.40;;;4.88;;
37805;SDS011;25082;50.870;0.022;2022-12-18T08:02:00;5.57;;;3.80;;
37805;SDS011;25082;50.870;0.022;2022-12-18T08:04:26;7.88;;;4.82;;
37805;SDS011;25082;50.870;0.022;2022-12-18T08:06:52;6.57;;;4.15;;
37805;SDS011;25082;50.870;0.022;2022-12-18T08:09:18;8.02;;;5.10;;
37805;SDS011;25082;50.870;0.022;2022-12-18T08:11:44;9.48;;;5.07;;
37805;SDS011;25082;50.870;0.022;2022-12-18T08:14:10;8.05;;;4.95;;
37805;SDS011;25082;50.870;0.022;2022-12-18T08:16:35;8.57;;;5.97;;
37805;SDS011;25082;50.870;0.022;2022-12-18T08:19:01;6.75;;;4.60;;
37805;SDS011;25082;50.870;0.022;2022-12-18T08:21:28;8.32;;;5.25;;
37805;SDS011;25082;50.870;0.022;2022-12-18T08:23:56;7.93;;;5.25;;
37805;SDS011;25082;50.870;0.022;2022-12-18T08:26:23;7.25;;;4.88;;
37805;SDS011;25082;50.870;0.022;2022-12-18T08:28:51;8.13;;;5.60;;
37805;SDS011;25082;50.870;0.022;2022-12-18T08:31:18;7.63;;;5.57;;
37805;SDS011;25082;50.870;0.022;2022-12-18T08:33:44;7.35;;;5.32;;
37805;SDS011;25082;50.870;0.022;2022-12-18T08:36:12;7.80;;;5.70;;
37805;SDS011;25082;50.870;0.022;2022-12-18T08:38:38;7.30;;;5.20;;
37805;SDS011;25082;50.870;0.022;2022-12-18T08:41:08;8.40;;;5.47;;
37805;SDS011;25082;50.870;0.022;2022-12-18T08:43:36;7.97;;;5.72;;
37805;SDS011;25082;50.870;0.022;2022-12-18T08:46:21;9.65;;;6.28;;
37805;SDS011;25082;50.870;0.022;2022-12-18T08:48:47;8.23;;;5.30;;
37805;SDS011;25082;50.870;0.022;2022-12-18T08:51:17;7.32;;;5.50;;
37805;SDS011;25082;50.870;0.022;2022-12-18T08:53:44;8.48;;;5.72;;
37805;SDS011;25082;50.870;0.022;2022-12-18T08:56:11;9.20;;;5.82;;
37805;SDS011;25082;50.870;0.022;2022-12-18T08:58:37;9.50;;;6.40;;
37805;SDS011;25082;50.870;0.022;2022-12-18T09:01:04;8.43;;;5.60;;
37805;SDS011;25082;50.870;0.022;2022-12-18T09:03:31;8.70;;;5.75;;
37805;SDS011;25082;50.870;0.022;2022-12-18T09:05:58;8.60;;;5.55;;
37805;SDS011;25082;50.870;0.022;2022-12-18T09:08:24;8.98;;;5.50;;
37805;SDS011;25082;50.870;0.022;2022-12-18T09:10:50;9.25;;;5.60;;
37805;SDS011;25082;50.870;0.022;2022-12-18T09:13:16;7.13;;;5.03;;
37805;SDS011;25082;50.870;0.022;2022-12-18T09:15:47;6.97;;;5.63;;
37805;SDS011;25082;50.870;0.022;2022-12-18T09:18:17;8.23;;;5.80;;
37805;SDS011;25082;50.870;0.022;2022-12-18T09:20:44;8.02;;;5.68;;
37805;SDS011;25082;50.870;0.022;2022-12-18T09:23:11;10.30;;;6.43;;
37805;SDS011;25082;50.870;0.022;2022-12-18T09:25:37;7.50;;;4.78;;
37805;SDS011;25082;50.870;0.022;2022-12-18T09:28:04;10.40;;;5.43;;
37805;SDS011;25082;50.870;0.022;2022-12-18T09:30:37;7.38;;;4.93;;
37805;SDS011;25082;50.870;0.022;2022-12-18T09:33:06;9.48;;;5.80;;
37805;SDS011;25082;50.870;0.022;2022-12-18T09:35:32;9.32;;;4.53;;
37805;SDS011;25082;50.870;0.022;2022-12-18T09:38:00;7.03;;;4.82;;
37805;SDS011;25082;50.870;0.022;2022-12-18T09:40:28;7.88;;;5.63;;
37805;SDS011;25082;50.870;0.022;2022-12-18T09:42:59;8.65;;;5.10;;
37805;SDS011;25082;50.870;0.022;2022-12-18T09:45:35;8.40;;;5.33;;
37805;SDS011;25082;50.870;0.022;2022-12-18T09:48:10;7.75;;;5.53;;
37805;SDS011;25082;50.870;0.022;2022-12-18T09:50:57;7.40;;;5.15;;
37805;SDS011;25082;50.870;0.022;2022-12-18T09:53:30;7.90;;;5.38;;
37805;SDS011;25082;50.870;0.022;2022-12-18T09:55:59;8.00;;;5.35;;
37805;SDS011;25082;50.870;0.022;2022-12-18T09:58:41;8.32;;;5.50;;
37805;SDS011;25082;50.870;0.022;2022-12-18T10:01:19;6.72;;;5.07;;
37805;SDS011;25082;50.870;0.022;2022-12-18T10:03:47;9.30;;;5.38;;
37805;SDS011;25082;50.870;0.022;2022-12-18T10:06:15;7.60;;;5.45;;
37805;SDS011;25082;50.870;0.022;2022-12-18T10:09:01;8.85;;;5.68;;
37805;SDS011;25082;50.870;0.022;2022-12-18T10:14:58;7.97;;;4.88;;
37805;SDS011;25082;50.870;0.022;2022-12-18T10:20:32;6.70;;;4.82;;
37805;SDS011;25082;50.870;0.022;2022-12-18T10:28:31;6.60;;;4.65;;
37805;SDS011;25082;50.870;0.022;2022-12-18T10:30:58;9.63;;;5.40;;
37805;SDS011;25082;50.870;0.022;2022-12-18T10:33:27;11.75;;;5.90;;
37805;SDS011;25082;50.870;0.022;2022-12-18T10:35:55;9.27;;;5.45;;
37805;SDS011;25082;50.870;0.022;2022-12-18T10:38:27;8.80;;;4.70;;
37805;SDS011;25082;50.870;0.022;2022-12-18T10:40:56;7.65;;;4.85;;
37805;SDS011;25082;50.870;0.022;2022-12-18T10:43:26;9.13;;;5.13;;
37805;SDS011;25082;50.870;0.022;2022-12-18T10:48:39;12.95;;;5.93;;
37805;SDS011;25082;50.870;0.022;2022-12-18T10:51:16;9.63;;;5.80;;
37805;SDS011;25082;50.870;0.022;2022-12-18T10:56:50;9.80;;;5.38;;
37805;SDS011;25082;50.870;0.022;2022-12-18T10:59:17;10.48;;;5.38;;
37805;SDS011;25082;50.870;0.022;2022-12-18T11:01:50;9.07;;;5.45;;
37805;SDS011;25082;50.870;0.022;2022-12-18T11:04:21;9.80;;;4.80;;
37805;SDS011;25082;50.870;0.022;2022-12-18T11:09:30;14.73;;;4.57;;
37805;SDS011;25082;50.870;0.022;2022-12-18T11:12:01;14.35;;;4.85;;
37805;SDS011;25082;50.870;0.022;2022-12-18T11:14:32;19.60;;;8.10;;
37805;SDS011;25082;50.870;0.022;2022-12-18T11:17:16;11.75;;;6.72;;
37805;SDS011;25082;50.870;0.022;2022-12-18T11:19:44;17.40;;;7.88;;
37805;SDS011;25082;50.870;0.022;2022-12-18T11:22:25;9.23;;;5.97;;
37805;SDS011;25082;50.870;0.022;2022-12-18T11:27:37;11.93;;;6.55;;
37805;SDS011;25082;50.870;0.022;2022-12-18T11:30:21;12.05;;;6.47;;
37805;SDS011;25082;50.870;0.022;2022-12-18T11:33:10;13.88;;;6.32;;
37805;SDS011;25082;50.870;0.022;2022-12-18T11:35:52;11.27;;;6.63;;
37805;SDS011;25082;50.870;0.022;2022-12-18T11:38:26;11.68;;;6.05;;
37805;SDS011;25082;50.870;0.022;2022-12-18T11:40:59;12.07;;;6.35;;
37805;SDS011;25082;50.870;0.022;2022-12-18T11:46:32;11.48;;;6.43;;
37805;SDS011;25082;50.870;0.022;2022-12-18T11:49:08;8.80;;;5.93;;
37805;SDS011;25082;50.870;0.022;2022-12-18T11:51:56;8.82;;;5.55;;
37805;SDS011;25082;50.870;0.022;2022-12-18T11:54:26;18.23;;;6.15;;
37805;SDS011;25082;50.870;0.022;2022-12-18T11:59:29;9.27;;;6.00;;
37805;SDS011;25082;50.870;0.022;2022-12-18T12:05:33;11.90;;;7.18;;
37805;SDS011;25082;50.870;0.022;2022-12-18T12:22:10;9.45;;;5.53;;
37805;SDS011;25082;50.870;0.022;2022-12-18T12:30:21;9.88;;;5.22;;
37805;SDS011;25082;50.870;0.022;2022-12-18T12:35:28;6.40;;;5.13;;
37805;SDS011;25082;50.870;0.022;2022-12-18T12:40:27;8.65;;;5.47;;
37805;SDS011;25082;50.870;0.022;2022-12-18T12:43:00;9.02;;;5.22;;
37805;SDS011;25082;50.870;0.022;2022-12-18T12:45:42;8.38;;;4.93;;
37805;SDS011;25082;50.870;0.022;2022-12-18T12:51:09;9.57;;;4.88;;
37805;SDS011;25082;50.870;0.022;2022-12-18T12:53:42;8.63;;;5.13;;
37805;SDS011;25082;50.870;0.022;2022-12-18T12:56:09;9.82;;;4.72;;
37805;SDS011;25082;50.870;0.022;2022-12-18T13:07:13;7.57;;;4.40;;
37805;SDS011;25082;50.870;0.022;2022-12-18T13:10:44;7.72;;;4.43;;
37805;SDS011;25082;50.870;0.022;2022-12-18T13:12:52;7.10;;;4.47;;
37805;SDS011;25082;50.870;0.022;2022-12-18T13:15:21;7.25;;;4.40;;
37805;SDS011;25082;50.870;0.022;2022-12-18T13:17:47;6.78;;;4.68;;
37805;SDS011;25082;50.870;0.022;2022-12-18T13:20:14;8.85;;;4.88;;
37805;SDS011;25082;50.870;0.022;2022-12-18T13:22:48;7.35;;;4.93;;
37805;SDS011;25082;50.870;0.022;2022-12-18T13:27:57;6.38;;;4.65;;
37805;SDS011;25082;50.870;0.022;2022-12-18T13:40:57;6.13;;;4.38;;
37805;SDS011;25082;50.870;0.022;2022-12-18T13:43:50;6.03;;;4.28;;
37805;SDS011;25082;50.870;0.022;2022-12-18T13:46:19;7.50;;;3.90;;
37805;SDS011;25082;50.870;0.022;2022-12-18T13:48:56;5.78;;;4.10;;
37805;SDS011;25082;50.870;0.022;2022-12-18T13:51:23;8.15;;;4.18;;
37805;SDS011;25082;50.870;0.022;2022-12-18T13:53:51;5.22;;;3.80;;
37805;SDS011;25082;50.870;0.022;2022-12-18T13:56:26;5.65;;;3.72;;
37805;SDS011;25082;50.870;0.022;2022-12-18T13:59:14;7.25;;;4.00;;
37805;SDS011;25082;50.870;0.022;2022-12-18T14:01:44;6.65;;;3.83;;
37805;SDS011;25082;50.870;0.022;2022-12-18T14:04:16;5.38;;;3.22;;
37805;SDS011;25082;50.870;0.022;2022-12-18T14:07:25;4.55;;;3.28;;
37805;SDS011;25082;50.870;0.022;2022-12-18T14:09:53;5.55;;;3.17;;
37805;SDS011;25082;50.870;0.022;2022-12-18T14:12:31;4.20;;;2.83;;
37805;SDS011;25082;50.870;0.022;2022-12-18T14:17:47;11.15;;;3.45;;
37805;SDS011;25082;50.870;0.022;2022-12-18T14:20:14;5.57;;;3.40;;
37805;SDS011;25082;50.870;0.022;2022-12-18T14:22:43;4.03;;;3.00;;
37805;SDS011;25082;50.870;0.022;2022-12-18T14:27:45;5.88;;;3.22;;
37805;SDS011;25082;50.870;0.022;2022-12-18T14:33:05;7.03;;;3.60;;
37805;SDS011;25082;50.870;0.022;2022-12-18T14:35:43;12.93;;;3.10;;
37805;SDS011;25082;50.870;0.022;2022-12-18T14:40:54;7.95;;;3.20;;
37805;SDS011;25082;50.870;0.022;2022-12-18T14:43:27;7.13;;;3.08;;
37805;SDS011;25082;50.870;0.022;2022-12-18T14:45:55;6.18;;;2.95;;
37805;SDS011;25082;50.870;0.022;2022-12-18T14:48:35;6.88;;;3.50;;
37805;SDS011;25082;50.870;0.022;2022-12-18T14:51:16;3.65;;;2.83;;
37805;SDS011;25082;50.870;0.022;2022-12-18T14:53:45;4.38;;;2.70;;
37805;SDS011;25082;50.870;0.022;2022-12-18T14:56:44;6.38;;;3.33;;
37805;SDS011;25082;50.870;0.022;2022-12-18T14:59:14;4.60;;;3.13;;
37805;SDS011;25082;50.870;0.022;2022-12-18T15:04:38;6.85;;;3.50;;
37805;SDS011;25082;50.870;0.022;2022-12-18T15:07:20;6.55;;;3.25;;
37805;SDS011;25082;50.870;0.022;2022-12-18T15:12:42;6.82;;;2.90;;
37805;SDS011;25082;50.870;0.022;2022-12-18T15:18:01;4.25;;;2.95;;
37805;SDS011;25082;50.870;0.022;2022-12-18T15:20:55;4.63;;;2.67;;
37805;SDS011;25082;50.870;0.022;2022-12-18T15:23:22;6.32;;;2.83;;
37805;SDS011;25082;50.870;0.022;2022-12-18T15:26:02;5.03;;;2.90;;
37805;SDS011;25082;50.870;0.022;2022-12-18T15:33:46;5.28;;;2.92;;
37805;SDS011;25082;50.870;0.022;2022-12-18T15:36:28;5.55;;;2.80;;
37805;SDS011;25082;50.870;0.022;2022-12-18T15:38:55;5.68;;;3.17;;
37805;SDS011;25082;50.870;0.022;2022-12-18T15:41:22;8.40;;;3.13;;
37805;SDS011;25082;50.870;0.022;2022-12-18T15:43:49;4.72;;;3.10;;
37805;SDS011;25082;50.870;0.022;2022-12-18T15:46:18;5.22;;;3.00;;
37805;SDS011;25082;50.870;0.022;2022-12-18T15:48:49;4.90;;;3.25;;
37805;SDS011;25082;50.870;0.022;2022-12-18T15:51:32;4.65;;;2.88;;
37805;SDS011;25082;50.870;0.022;2022-12-18T15:54:00;5.13;;;3.08;;
37805;SDS011;25082;50.870;0.022;2022-12-18T15:56:31;7.03;;;3.50;;
37805;SDS011;25082;50.870;0.022;2022-12-18T15:59:17;5.70;;;3.42;;
37805;SDS011;25082;50.870;0.022;2022-12-18T16:01:48;6.20;;;3.38;;
37805;SDS011;25082;50.870;0.022;2022-12-18T16:04:16;6.97;;;3.17;;
37805;SDS011;25082;50.870;0.022;2022-12-18T16:06:45;8.30;;;3.83;;
37805;SDS011;25082;50.870;0.022;2022-12-18T16:09:11;5.40;;;3.65;;
37805;SDS011;25082;50.870;0.022;2022-12-18T16:11:37;7.78;;;4.40;;
37805;SDS011;25082;50.870;0.022;2022-12-18T16:14:17;5.43;;;3.60;;
37805;SDS011;25082;50.870;0.022;2022-12-18T16:16:44;5.50;;;3.80;;
37805;SDS011;25082;50.870;0.022;2022-12-18T16:19:13;9.20;;;4.60;;
37805;SDS011;25082;50.870;0.022;2022-12-18T16:21:39;8.90;;;5.15;;
37805;SDS011;25082;50.870;0.022;2022-12-18T16:24:05;8.98;;;5.38;;
37805;SDS011;25082;50.870;0.022;2022-12-18T16:26:34;7.28;;;5.35;;
37805;SDS011;25082;50.870;0.022;2022-12-18T16:29:00;14.85;;;5.90;;
37805;SDS011;25082;50.870;0.022;2022-12-18T16:31:25;14.77;;;7.30;;
37805;SDS011;25082;50.870;0.022;2022-12-18T16:34:09;10.15;;;6.88;;
37805;SDS011;25082;50.870;0.022;2022-12-18T16:36:38;9.95;;;6.30;;
37805;SDS011;25082;50.870;0.022;2022-12-18T16:39:05;11.32;;;5.35;;
37805;SDS011;25082;50.870;0.022;2022-12-18T16:41:30;12.00;;;5.70;;
37805;SDS011;25082;50.870;0.022;2022-12-18T16:43:57;14.95;;;5.05;;
37805;SDS011;25082;50.870;0.022;2022-12-18T16:46:23;9.38;;;5.47;;
37805;SDS011;25082;50.870;0.022;2022-12-18T16:48:48;7.13;;;4.90;;
37805;SDS011;25082;50.870;0.022;2022-12-18T16:51:14;7.32;;;4.18;;
37805;SDS011;25082;50.870;0.022;2022-12-18T16:53:40;8.80;;;4.97;;
37805;SDS011;25082;50.870;0.022;2022-12-18T16:56:06;6.97;;;4.43;;
37805;SDS011;25082;50.870;0.022;2022-12-18T16:58:31;11.27;;;4.88;;
37805;SDS011;25082;50.870;0.022;2022-12-18T17:00:58;7.57;;;4.65;;
37805;SDS011;25082;50.870;0.022;2022-12-18T17:03:24;8.57;;;5.18;;
37805;SDS011;25082;50.870;0.022;2022-12-18T17:05:49;8.65;;;4.07;;
37805;SDS011;25082;50.870;0.022;2022-12-18T17:08:15;11.82;;;4.60;;
37805;SDS011;25082;50.870;0.022;2022-12-18T17:10:41;7.20;;;3.83;;
37805;SDS011;25082;50.870;0.022;2022-12-18T17:13:06;7.65;;;4.47;;
37805;SDS011;25082;50.870;0.022;2022-12-18T17:15:35;6.47;;;3.80;;
37805;SDS011;25082;50.870;0.022;2022-12-18T17:18:02;10.13;;;4.97;;
37805;SDS011;25082;50.870;0.022;2022-12-18T17:20:29;7.20;;;4.90;;